Time;durP1;ratioP1;P1;durP2;ratioP2;P2;SDS_P1;SDS_P2;PMS_P1;PMS_P2;Temp;Humidity;BMP_temperature;BMP_pressure;BME280_temperature;BME280_humidity;BME280_pressure;Samples;Min_cycle;Max_cycle;Signal;HPM_P1;HPM_P2
2023/12/20 00:01:36;;;;;;;;;11.75;8.25;;;;;-143.90;42.94;75124.66;4924836;28;101720;-75
2023/12/20 00:04:03;;;;;;;;;9.00;8.00;;;;;-143.90;43.23;75128.81;4924539;28;101897;-74
2023/12/20 00:06:30;;;;;;;;;7.25;7.25;;;;;-143.90;45.01;75135.00;4924932;28;107747;-75
2023/12/20 00:09:00;;;;;;;;;12.50;8.50;;;;;-143.90;44.46;75145.34;4925010;28;101842;-75
2023/12/20 00:11:26;;;;;;;;;9.75;8.50;;;;;-143.90;45.69;75143.28;4923983;28;101929;-75
2023/12/20 00:13:53;;;;;;;;;9.25;8.50;;;;;-143.90;44.87;75145.34;4926425;28;103210;-75
2023/12/20 00:16:19;;;;;;;;;7.50;4.50;;;;;-143.90;45.16;75149.47;4924432;28;103527;-75
2023/12/20 00:18:46;;;;;;;;;12.75;9.00;;;;;-143.90;44.22;75151.53;4922534;28;102345;-74
2023/12/20 00:21:13;;;;;;;;;11.25;10.00;;;;;-143.90;44.54;75141.22;4922762;28;103000;-75
2023/12/20 00:23:39;;;;;;;;;9.75;7.75;;;;;-143.90;43.82;75151.53;4923425;28;101699;-75
2023/12/20 00:26:06;;;;;;;;;10.25;9.00;;;;;-143.90;43.92;75155.69;4920827;28;103574;-75
2023/12/20 00:28:33;;;;;;;;;9.00;8.75;;;;;-143.90;43.70;75157.75;4925006;28;102557;-75
2023/12/20 00:30:59;;;;;;;;;5.50;5.50;;;;;-143.90;43.75;75151.53;4924703;28;101594;-74
2023/12/20 00:33:26;;;;;;;;;14.00;8.50;;;;;-143.90;43.45;75153.63;4924725;28;102356;-75
2023/12/20 00:35:53;;;;;;;;;8.75;7.75;;;;;-143.90;43.81;75163.94;4922491;28;103356;-76
2023/12/20 00:38:19;;;;;;;;;7.75;7.75;;;;;-143.90;42.68;75155.69;4923737;28;102655;-74
2023/12/20 00:40:46;;;;;;;;;7.75;7.75;;;;;-143.90;42.66;75155.69;4920532;28;101550;-75
2023/12/20 00:43:13;;;;;;;;;7.75;7.75;;;;;-143.90;42.85;75145.34;4920362;28;101919;-75
2023/12/20 00:45:39;;;;;;;;;9.50;8.75;;;;;-143.90;42.54;75163.94;4924281;28;103352;-74
2023/12/20 00:48:06;;;;;;;;;8.50;8.50;;;;;-143.90;41.60;75155.69;4921953;28;102093;-74
2023/12/20 00:50:33;;;;;;;;;9.25;7.75;;;;;-143.90;41.60;75157.75;4921177;28;103150;-75
2023/12/20 00:52:59;;;;;;;;;9.50;7.75;;;;;-143.90;41.08;75151.53;4924490;28;101688;-75
2023/12/20 00:55:26;;;;;;;;;4.50;3.00;;;;;-143.90;40.83;75151.53;4921488;28;103810;-75
2023/12/20 00:57:53;;;;;;;;;8.00;8.00;;;;;-143.90;40.25;75147.41;4921665;28;102204;-75
2023/12/20 01:00:20;;;;;;;;;9.00;8.00;;;;;-143.90;40.80;75132.94;4920915;28;101933;-75
2023/12/20 01:02:49;;;;;;;;;8.50;8.25;;;;;-143.90;40.90;75157.75;4918119;28;101907;-75
2023/12/20 01:05:15;;;;;;;;;10.25;9.00;;;;;-143.90;40.83;75159.81;4922465;28;103508;-75
2023/12/20 01:07:42;;;;;;;;;8.50;7.00;;;;;-143.90;40.88;75132.94;4917852;28;103182;-74
2023/12/20 01:10:09;;;;;;;;;7.25;6.25;;;;;-143.90;40.83;75130.88;4926247;28;101769;-75
2023/12/20 01:12:36;;;;;;;;;10.00;8.50;;;;;-143.90;40.54;75118.47;4924338;28;102039;-74
2023/12/20 01:15:03;;;;;;;;;7.00;6.25;;;;;-143.90;40.46;75118.47;4924966;28;103870;-74
2023/12/20 01:17:30;;;;;;;;;9.50;8.50;;;;;-143.90;40.09;75126.75;4927164;28;103203;-74
2023/12/20 01:19:56;;;;;;;;;11.75;9.50;;;;;-143.90;39.88;75097.78;4926506;28;101990;-75
2023/12/20 01:22:23;;;;;;;;;8.00;7.00;;;;;-143.90;40.20;75093.66;4925165;28;101999;-75
2023/12/20 01:24:50;;;;;;;;;7.00;5.50;;;;;-143.90;39.91;75116.41;4922808;28;103532;-75
2023/12/20 01:27:16;;;;;;;;;10.00;6.50;;;;;-143.90;40.40;75114.34;4925402;28;101713;-74
2023/12/20 01:29:43;;;;;;;;;8.75;7.75;;;;;-143.90;40.42;75097.78;4925098;28;101862;-75
2023/12/20 01:32:10;;;;;;;;;7.25;7.25;;;;;-143.90;40.37;75097.78;4920689;28;101585;-74
2023/12/20 01:34:36;;;;;;;;;9.25;8.75;;;;;-143.90;40.71;75087.47;4922552;28;103590;-74
2023/12/20 01:37:04;;;;;;;;;9.00;7.00;;;;;-143.90;39.87;75097.78;4924608;28;102109;-74
2023/12/20 01:39:30;;;;;;;;;8.25;8.25;;;;;-143.90;39.96;75085.38;4928211;28;101989;-75
2023/12/20 01:44:33;;;;;;;;;9.25;7.50;;;;;-143.90;40.49;75093.66;4877734;28;107934;-70
2023/12/20 01:47:00;;;;;;;;;6.75;6.00;;;;;-143.90;39.70;75077.13;4897186;28;102977;-72
2023/12/20 01:49:27;;;;;;;;;4.50;4.00;;;;;-143.90;39.55;75072.97;4888670;28;102682;-72
2023/12/20 01:51:55;;;;;;;;;6.00;4.75;;;;;-143.90;40.40;75093.66;4909910;28;102260;-71
2023/12/20 01:54:22;;;;;;;;;9.50;8.00;;;;;-143.90;39.73;75097.78;4911945;28;104150;-71
2023/12/20 01:56:50;;;;;;;;;11.50;9.25;;;;;-143.90;39.58;75097.78;4910180;28;102485;-72
2023/12/20 01:59:20;;;;;;;;;7.75;7.25;;;;;-143.90;39.68;75099.88;4910928;28;102199;-71
2023/12/20 02:01:47;;;;;;;;;10.00;9.75;;;;;-143.90;40.10;75097.78;4901360;28;103579;-72
2023/12/20 02:04:14;;;;;;;;;9.50;8.50;;;;;-143.90;40.25;75101.94;4911512;28;104430;-71
2023/12/20 02:06:42;;;;;;;;;9.00;6.75;;;;;-143.90;40.34;75097.78;4914352;28;102535;-71
2023/12/20 02:09:09;;;;;;;;;8.25;7.75;;;;;-143.90;40.00;75085.38;4912946;28;102438;-71
2023/12/20 02:11:38;;;;;;;;;9.00;8.00;;;;;-143.90;40.17;75075.06;4914472;28;102433;-71
2023/12/20 02:14:04;;;;;;;;;7.75;7.75;;;;;-143.90;39.86;75075.06;4912336;28;104144;-71
2023/12/20 02:16:31;;;;;;;;;10.00;7.00;;;;;-143.90;40.41;75087.47;4916230;28;102361;-71
2023/12/20 02:18:58;;;;;;;;;10.50;9.00;;;;;-143.90;40.07;75089.53;4911764;28;102271;-71
2023/12/20 02:21:36;;;;;;;;;7.50;7.50;;;;;-143.90;40.32;75093.66;4915002;28;102075;-71
2023/12/20 02:24:03;;;;;;;;;7.00;6.50;;;;;-143.90;40.52;75087.47;4912744;28;109197;-71
2023/12/20 02:26:33;;;;;;;;;6.25;6.25;;;;;-143.90;40.45;75118.47;4914899;28;102085;-72
2023/12/20 02:29:00;;;;;;;;;8.75;7.75;;;;;-143.90;40.76;75097.78;4911463;28;102736;-70
2023/12/20 02:31:27;;;;;;;;;7.75;6.25;;;;;-143.90;40.74;75097.78;4911857;28;102224;-71
2023/12/20 02:33:54;;;;;;;;;9.75;8.00;;;;;-143.90;40.77;75108.13;4910173;28;104047;-71
2023/12/20 02:36:20;;;;;;;;;9.75;8.25;;;;;-143.90;41.25;75106.06;4913128;28;102454;-71
2023/12/20 02:38:47;;;;;;;;;6.25;6.25;;;;;-143.90;41.06;75095.72;4913030;28;107551;-71
2023/12/20 02:41:16;;;;;;;;;8.00;7.00;;;;;-143.90;41.13;75099.88;4914496;28;102069;-71
2023/12/20 02:43:44;;;;;;;;;9.00;8.00;;;;;-143.90;41.55;75122.59;4908224;28;104167;-72
2023/12/20 02:46:11;;;;;;;;;10.00;9.75;;;;;-143.90;41.36;75114.34;4912544;28;101898;-72
2023/12/20 02:48:38;;;;;;;;;9.00;9.00;;;;;-143.90;41.49;75135.00;4911410;28;102491;-71
2023/12/20 02:51:05;;;;;;;;;9.25;9.25;;;;;-143.90;41.97;75126.75;4914023;28;102047;-70
2023/12/20 02:53:31;;;;;;;;;9.75;9.75;;;;;-143.90;41.76;75122.59;4913291;28;104404;-72
2023/12/20 02:55:58;;;;;;;;;12.25;10.25;;;;;-143.90;41.75;75124.66;4909355;28;103925;-72
2023/12/20 02:58:25;;;;;;;;;10.50;9.75;;;;;-143.90;41.97;75124.66;4914429;28;102444;-72
2023/12/20 03:00:51;;;;;;;;;10.25;9.75;;;;;-143.90;43.32;75137.06;4912122;28;102508;-71
2023/12/20 03:03:18;;;;;;;;;12.75;10.50;;;;;-143.90;45.61;75151.53;4913802;28;104014;-72
2023/12/20 03:05:46;;;;;;;;;13.00;10.00;;;;;-143.90;46.92;75184.63;4910876;28;102449;-72
2023/12/20 03:08:12;;;;;;;;;14.25;12.00;;;;;-143.90;48.73;75199.09;4913553;28;103060;-72
2023/12/20 03:10:39;;;;;;;;;18.00;11.50;;;;;-143.90;50.35;75215.63;4915233;28;102519;-73
2023/12/20 03:13:06;;;;;;;;;13.75;9.00;;;;;-143.90;50.46;75211.50;4906608;28;104068;-73
2023/12/20 03:15:32;;;;;;;;;12.25;9.00;;;;;-143.90;51.31;75230.09;4908322;28;104197;-73
2023/12/20 03:17:59;;;;;;;;;13.00;9.75;;;;;-143.90;52.41;75228.03;4911415;28;102248;-71
2023/12/20 03:20:26;;;;;;;;;10.00;8.75;;;;;-143.90;53.58;75242.50;4909739;28;102241;-71
2023/12/20 03:22:53;;;;;;;;;9.00;9.00;;;;;-143.90;54.40;75275.59;4910864;28;104175;-71
2023/12/20 03:25:19;;;;;;;;;11.50;9.75;;;;;-143.90;54.81;75277.66;4905028;28;102535;-71
2023/12/20 03:27:46;;;;;;;;;12.00;9.75;;;;;-143.90;57.96;75292.13;4904782;28;103026;-72
2023/12/20 03:30:13;;;;;;;;;13.50;11.50;;;;;-143.90;57.22;75300.41;4908458;28;102533;-72
2023/12/20 03:32:40;;;;;;;;;11.75;9.75;;;;;-143.90;58.86;75300.41;4905696;28;103981;-71
2023/12/20 03:35:07;;;;;;;;;11.25;10.25;;;;;-143.90;60.56;75319.00;4903927;28;103698;-71
2023/12/20 03:37:34;;;;;;;;;11.00;11.00;;;;;-143.90;61.82;75329.34;4910112;28;102398;-70
2023/12/20 03:40:01;;;;;;;;;11.00;9.00;;;;;-143.90;62.15;75337.63;4911177;28;102052;-71
2023/12/20 03:42:27;;;;;;;;;13.50;10.50;;;;;-143.90;64.04;75339.69;4906822;28;108640;-71
2023/12/20 03:44:54;;;;;;;;;8.75;8.00;;;;;-143.90;65.88;75362.44;4905629;28;103249;-71
2023/12/20 03:47:21;;;;;;;;;7.25;7.00;;;;;-143.90;67.70;75362.44;4909507;28;102186;-71
2023/12/20 03:49:47;;;;;;;;;10.00;10.00;;;;;-143.90;68.23;75374.84;4909774;28;103557;-71
2023/12/20 03:52:14;;;;;;;;;7.75;7.00;;;;;-143.90;70.56;75383.09;4910059;28;104079;-71
2023/12/20 03:54:44;;;;;;;;;8.50;8.00;;;;;-143.90;71.88;75397.56;4910368;28;101991;-70
2023/12/20 03:57:11;;;;;;;;;12.00;8.75;;;;;-143.90;72.83;75403.78;4906985;28;102142;-70
2023/12/20 03:59:37;;;;;;;;;5.50;5.00;;;;;-143.90;74.90;75405.84;4908890;28;104320;-71
2023/12/20 04:02:04;;;;;;;;;9.50;8.00;;;;;-143.90;75.75;75424.44;4909431;28;104187;-71
2023/12/20 04:04:30;;;;;;;;;9.25;8.50;;;;;-143.90;77.92;75428.59;4910068;28;102089;-71
2023/12/20 04:06:57;;;;;;;;;8.00;7.25;;;;;-143.90;81.08;75436.84;4908580;28;104446;-72
2023/12/20 04:09:24;;;;;;;;;9.00;7.00;;;;;-143.90;83.24;75445.13;4909518;28;104080;-71
2023/12/20 04:11:51;;;;;;;;;11.75;9.25;;;;;-143.90;88.75;75457.53;4908180;28;104176;-73
2023/12/20 04:14:17;;;;;;;;;14.00;10.50;;;;;-143.90;89.87;75465.81;4908672;28;102450;-71
2023/12/20 04:16:44;;;;;;;;;10.25;9.50;;;;;-143.90;92.85;75469.94;4909645;28;103829;-72
2023/12/20 04:19:13;;;;;;;;;11.75;11.75;;;;;-143.90;96.69;75478.22;4906084;28;104068;-71
2023/12/20 04:21:40;;;;;;;;;14.75;12.00;;;;;-143.90;99.66;75484.41;4908538;28;104532;-70
2023/12/20 04:24:07;;;;;;;;;18.00;11.75;;;;;-143.90;100.00;75490.63;4908740;28;102329;-71
2023/12/20 04:26:33;;;;;;;;;12.75;10.75;;;;;-143.90;100.00;75490.63;4908584;28;102053;-71
2023/12/20 04:29:00;;;;;;;;;14.50;12.00;;;;;-143.90;100.00;75492.69;4911573;28;102032;-72
2023/12/20 04:31:26;;;;;;;;;15.00;14.50;;;;;-143.90;100.00;75500.94;4910456;28;104506;-71
2023/12/20 04:33:53;;;;;;;;;16.25;15.25;;;;;-143.90;100.00;75515.41;4911223;28;102386;-71
2023/12/20 04:36:20;;;;;;;;;22.50;16.25;;;;;-143.90;100.00;75523.69;4907975;28;102425;-71
2023/12/20 04:38:46;;;;;;;;;6.25;2.00;;;;;-143.90;100.00;75519.56;4909457;28;102409;-71
2023/12/20 04:41:15;;;;;;;;;19.75;15.00;;;;;-143.90;100.00;75525.75;4909294;28;104073;-72
2023/12/20 04:43:42;;;;;;;;;15.50;14.75;;;;;-143.90;100.00;75527.81;4906791;28;102457;-72
2023/12/20 04:46:09;;;;;;;;;15.00;12.50;;;;;-143.90;100.00;75529.91;4910727;28;102561;-71
2023/12/20 04:48:36;;;;;;;;;12.25;11.00;;;;;-143.90;100.00;75536.09;4913814;28;103710;-72
2023/12/20 04:51:03;;;;;;;;;14.00;12.25;;;;;-143.90;100.00;75536.09;4912980;28;103985;-72
2023/12/20 04:53:30;;;;;;;;;12.50;11.75;;;;;-143.90;100.00;75525.75;4914430;28;102015;-72
2023/12/20 04:55:57;;;;;;;;;16.00;14.00;;;;;-143.90;100.00;75536.09;4911475;28;102980;-72
2023/12/20 04:58:26;;;;;;;;;16.00;12.00;;;;;-143.90;100.00;75536.09;4913743;28;103872;-71
2023/12/20 05:00:52;;;;;;;;;12.00;10.00;;;;;-143.90;100.00;75534.03;4913039;28;104139;-71
2023/12/20 05:03:19;;;;;;;;;10.50;10.25;;;;;-143.90;100.00;75534.03;4914884;28;102000;-71
2023/12/20 05:05:46;;;;;;;;;12.50;10.00;;;;;-143.90;100.00;75525.75;4914146;28;102303;-72
2023/12/20 05:08:12;;;;;;;;;15.00;10.00;;;;;-143.90;100.00;75529.91;4914994;28;102263;-73
2023/12/20 05:10:40;;;;;;;;;14.75;10.75;;;;;-143.90;100.00;75521.63;4916047;28;104002;-73
2023/12/20 05:13:07;;;;;;;;;10.50;8.50;;;;;-143.90;100.00;75523.69;4928675;28;102743;-72
2023/12/20 05:15:34;;;;;;;;;15.25;9.00;;;;;-143.90;100.00;75529.91;4915743;28;102375;-71
2023/12/20 05:18:01;;;;;;;;;9.25;9.25;;;;;-143.90;100.00;75525.75;4912460;28;102506;-72
2023/12/20 05:20:27;;;;;;;;;15.25;10.75;;;;;-143.90;100.00;75531.97;4911116;28;104304;-71
2023/12/20 05:22:54;;;;;;;;;11.00;10.25;;;;;-143.90;100.00;75536.09;4911320;28;102744;-72
2023/12/20 05:25:21;;;;;;;;;9.75;9.75;;;;;-143.90;100.00;75536.09;4912628;28;103788;-72
2023/12/20 05:27:48;;;;;;;;;11.25;8.50;;;;;-143.90;100.00;75536.09;4910937;28;102665;-72
2023/12/20 05:30:15;;;;;;;;;11.50;9.50;;;;;-143.90;100.00;75540.22;4912848;28;104039;-71
2023/12/20 05:32:41;;;;;;;;;14.25;11.25;;;;;-143.90;100.00;75548.50;4910540;28;102433;-72
2023/12/20 05:35:08;;;;;;;;;11.50;9.50;;;;;-143.90;100.00;75558.84;4911352;28;103217;-71
2023/12/20 05:37:35;;;;;;;;;14.50;11.75;;;;;-143.90;100.00;75565.03;4912755;28;102428;-71
2023/12/20 05:40:02;;;;;;;;;20.25;15.00;;;;;-143.90;100.00;75560.91;4913712;28;104381;-71
2023/12/20 05:42:29;;;;;;;;;18.25;16.50;;;;;-143.90;100.00;75569.19;4910609;28;102259;-71
2023/12/20 05:44:55;;;;;;;;;19.25;15.25;;;;;-143.90;100.00;75562.97;4907246;28;102461;-72
2023/12/20 05:47:24;;;;;;;;;14.75;13.75;;;;;-143.90;100.00;75560.91;4912554;28;103809;-71
2023/12/20 05:49:51;;;;;;;;;17.75;16.00;;;;;-143.90;100.00;75573.31;4907868;28;104075;-72
2023/12/20 05:52:17;;;;;;;;;29.00;25.00;;;;;-143.90;100.00;75577.44;4913707;28;102494;-73
2023/12/20 05:54:44;;;;;;;;;28.75;25.00;;;;;-143.90;100.00;75594.00;4914164;28;102111;-73
2023/12/20 05:57:11;;;;;;;;;26.25;26.25;;;;;-143.90;100.00;75600.19;4913216;28;103348;-72
2023/12/20 05:59:38;;;;;;;;;37.33;33.33;;;;;-143.90;100.00;75604.34;4912255;28;104401;-72
2023/12/20 06:02:04;;;;;;;;;34.33;31.33;;;;;-143.90;100.00;75612.59;4906480;28;102156;-74
2023/12/20 06:04:31;;;;;;;;;29.67;28.00;;;;;-143.90;100.00;75616.72;4912713;28;102146;-73
2023/12/20 06:06:59;;;;;;;;;29.75;26.00;;;;;-143.90;100.00;75612.59;4916578;28;102494;-73
2023/12/20 06:09:29;;;;;;;;;29.00;26.50;;;;;-143.90;100.00;75610.53;4914438;28;104014;-73
2023/12/20 06:11:57;;;;;;;;;26.67;24.00;;;;;-143.90;100.00;75610.53;4911409;28;102208;-71
2023/12/20 06:14:24;;;;;;;;;23.50;22.00;;;;;-143.90;100.00;75608.47;4912647;28;104152;-72
2023/12/20 06:16:51;;;;;;;;;27.25;25.25;;;;;-143.90;100.00;75612.59;4916113;28;102708;-72
2023/12/20 06:19:17;;;;;;;;;16.00;13.75;;;;;-143.90;100.00;75608.47;4917836;28;104311;-72
2023/12/20 06:21:44;;;;;;;;;34.00;27.00;;;;;-143.90;100.00;75612.59;4916046;28;102354;-72
2023/12/20 06:24:11;;;;;;;;;35.00;30.00;;;;;-143.90;100.00;75618.81;4916323;28;102189;-72
2023/12/20 06:26:38;;;;;;;;;28.00;24.00;;;;;-143.90;100.00;75622.94;4917087;28;101968;-71
2023/12/20 06:29:05;;;;;;;;;29.33;25.00;;;;;-143.90;100.00;75614.66;4915364;28;104211;-72
2023/12/20 06:31:32;;;;;;;;;27.00;23.00;;;;;-143.90;100.00;75610.53;4914403;28;102691;-72
2023/12/20 06:33:59;;;;;;;;;26.75;26.00;;;;;-143.90;100.00;75610.53;4914494;28;101968;-72
2023/12/20 06:36:26;;;;;;;;;30.25;26.25;;;;;-143.90;100.00;75614.66;4917920;28;102031;-72
2023/12/20 06:38:53;;;;;;;;;26.00;23.25;;;;;-143.90;100.00;75614.66;4916400;28;103024;-71
2023/12/20 06:41:20;;;;;;;;;23.25;20.00;;;;;-143.90;100.00;75610.53;4912276;28;102429;-72
2023/12/20 06:43:47;;;;;;;;;37.75;25.50;;;;;-143.90;100.00;75614.66;4923720;28;102378;-73
2023/12/20 06:46:16;;;;;;;;;26.50;21.25;;;;;-143.90;100.00;75620.88;4915152;28;102251;-71
2023/12/20 06:48:45;;;;;;;;;33.75;25.50;;;;;-143.90;100.00;75631.22;4916036;28;104535;-72
2023/12/20 06:51:14;;;;;;;;;27.00;23.50;;;;;-143.90;100.00;75620.88;4903041;28;102122;-72
2023/12/20 06:53:41;;;;;;;;;28.25;24.50;;;;;-143.90;100.00;75629.13;4915489;28;101873;-72
2023/12/20 06:56:10;;;;;;;;;28.50;23.25;;;;;-143.90;100.00;75627.06;4915512;28;103381;-72
2023/12/20 06:58:37;;;;;;;;;27.50;24.50;;;;;-143.90;100.00;75643.63;4915148;28;104361;-72
2023/12/20 07:01:04;;;;;;;;;31.00;25.33;;;;;-143.90;100.00;75639.47;4914150;28;102547;-72
2023/12/20 07:03:32;;;;;;;;;27.00;24.33;;;;;-143.90;100.00;75643.63;4915655;28;102324;-73
2023/12/20 07:05:58;;;;;;;;;28.67;25.00;;;;;-143.90;100.00;75656.03;4915852;28;102151;-73
2023/12/20 07:08:25;;;;;;;;;35.67;29.67;;;;;-143.90;100.00;75656.03;4914884;28;104115;-74
2023/12/20 07:10:52;;;;;;;;;30.33;28.33;;;;;-143.90;100.00;75662.22;4916715;28;102147;-72
2023/12/20 07:13:18;;;;;;;;;42.67;31.00;;;;;-143.90;100.00;75653.94;4916211;28;101997;-72
2023/12/20 07:15:45;;;;;;;;;36.00;30.33;;;;;-143.90;100.00;75653.94;4915405;28;102621;-73
2023/12/20 07:18:12;;;;;;;;;33.00;27.67;;;;;-143.90;100.00;75647.75;4915494;28;104331;-73
2023/12/20 07:20:38;;;;;;;;;52.33;43.00;;;;;-143.90;100.00;75649.81;4914340;28;102138;-71
2023/12/20 07:23:05;;;;;;;;;43.67;36.00;;;;;-143.90;100.00;75651.88;4915007;28;102470;-72
2023/12/20 07:25:32;;;;;;;;;33.00;27.67;;;;;-143.90;100.00;75658.09;4915389;28;102177;-72
2023/12/20 07:27:59;;;;;;;;;35.00;26.33;;;;;-143.90;100.00;75660.16;4913080;28;103986;-72
2023/12/20 07:30:26;;;;;;;;;36.00;26.67;;;;;-143.90;100.00;75653.94;4913823;28;102193;-73
2023/12/20 07:32:52;;;;;;;;;34.33;30.33;;;;;-143.90;100.00;75656.03;4911501;28;103331;-72
2023/12/20 07:35:19;;;;;;;;;39.67;34.00;;;;;-143.90;100.00;75670.50;4916259;28;101937;-73
2023/12/20 07:37:46;;;;;;;;;31.67;26.33;;;;;-143.90;100.00;75668.44;4914064;28;108719;-72
2023/12/20 07:40:13;;;;;;;;;28.33;23.67;;;;;-143.90;100.00;75668.44;4914520;28;102364;-72
2023/12/20 07:42:40;;;;;;;;;36.33;31.67;;;;;-143.90;100.00;75672.56;4914092;28;102669;-72
2023/12/20 07:45:07;;;;;;;;;35.33;28.33;;;;;-143.90;100.00;75668.44;4916231;28;102220;-72
2023/12/20 07:47:33;;;;;;;;;31.75;23.75;;;;;-143.90;100.00;75660.16;4914333;28;104223;-72
2023/12/20 07:50:00;;;;;;;;;32.33;28.00;;;;;-143.90;100.00;75680.84;4913206;28;102342;-72
2023/12/20 07:52:27;;;;;;;;;39.67;33.00;;;;;-143.90;100.00;75680.84;4915344;28;102020;-72
2023/12/20 07:54:53;;;;;;;;;39.67;32.00;;;;;-143.90;100.00;75676.69;4913653;28;102071;-73
2023/12/20 07:57:20;;;;;;;;;45.33;35.33;;;;;-143.90;100.00;75689.09;4915185;28;104091;-73
2023/12/20 07:59:47;;;;;;;;;45.00;38.00;;;;;-143.90;100.00;75697.38;4902667;28;103639;-72
2023/12/20 08:02:13;;;;;;;;;36.33;30.33;;;;;-143.90;100.00;75689.09;4914365;28;102354;-72
2023/12/20 08:04:40;;;;;;;;;45.00;38.00;;;;;-143.90;100.00;75693.25;4915749;28;102151;-72
2023/12/20 08:07:07;;;;;;;;;42.67;37.67;;;;;-143.90;100.00;75705.66;4913671;28;104643;-72
2023/12/20 08:09:36;;;;;;;;;36.67;31.67;;;;;-143.90;100.00;75699.44;4912512;28;102472;-72
2023/12/20 08:12:03;;;;;;;;;37.67;32.33;;;;;-143.90;100.00;75703.56;4913475;28;102141;-73
2023/12/20 08:14:31;;;;;;;;;34.00;31.00;;;;;-143.90;100.00;75695.31;4915415;28;102364;-72
2023/12/20 08:16:59;;;;;;;;;35.33;30.33;;;;;-143.90;100.00;75701.50;4927730;28;104133;-72
2023/12/20 08:19:26;;;;;;;;;40.00;30.67;;;;;-143.90;100.00;75697.38;4916194;28;102102;-72
2023/12/20 08:21:53;;;;;;;;;30.00;27.33;;;;;-143.90;100.00;75701.50;4917574;28;102391;-72
2023/12/20 08:24:19;;;;;;;;;35.67;30.33;;;;;-143.90;100.00;75697.38;4920082;28;101960;-72
2023/12/20 08:26:46;;;;;;;;;42.00;34.67;;;;;-143.90;100.00;75713.91;4917295;28;108720;-73
2023/12/20 08:29:14;;;;;;;;;35.00;30.67;;;;;-143.90;100.00;75718.06;4916722;28;102310;-73
2023/12/20 08:31:40;;;;;;;;;32.33;29.33;;;;;-143.90;100.00;75707.72;4918036;28;102431;-72
2023/12/20 08:34:07;;;;;;;;;30.67;29.67;;;;;-143.90;100.00;75715.97;4917081;28;102004;-73
2023/12/20 08:36:35;;;;;;;;;33.67;30.00;;;;;-143.90;100.00;75705.66;4916544;28;104120;-73
2023/12/20 08:39:03;;;;;;;;;28.67;26.33;;;;;-143.90;100.00;75699.44;4918131;28;102491;-72
2023/12/20 08:41:30;;;;;;;;;22.33;22.33;;;;;-143.90;100.00;75701.50;4916691;28;102138;-73
2023/12/20 08:43:56;;;;;;;;;35.00;26.33;;;;;-143.90;100.00;75705.66;4931629;28;102562;-73
2023/12/20 08:46:23;;;;;;;;;37.67;30.00;;;;;-143.90;100.00;75703.56;4917481;28;104182;-73
2023/12/20 08:48:50;;;;;;;;;35.00;32.33;;;;;-143.90;100.00;75709.78;4919229;28;102267;-72
2023/12/20 08:51:17;;;;;;;;;36.33;29.33;;;;;-143.90;100.00;75707.72;4916156;28;102000;-73
2023/12/20 08:53:45;;;;;;;;;39.00;35.00;;;;;-143.90;100.00;75722.19;4919506;28;102488;-72
2023/12/20 08:56:12;;;;;;;;;38.67;31.00;;;;;-143.90;100.00;75705.66;4917399;28;104725;-73
2023/12/20 08:58:38;;;;;;;;;37.33;34.67;;;;;-143.90;100.00;75705.66;4913883;28;102224;-72
2023/12/20 09:01:05;;;;;;;;;41.67;34.33;;;;;-143.90;100.00;75697.38;4917426;28;102806;-72
2023/12/20 09:03:32;;;;;;;;;31.67;27.00;;;;;-143.90;100.00;75684.97;4919742;28;102159;-73
2023/12/20 09:05:58;;;;;;;;;38.00;31.67;;;;;-143.90;100.00;75689.09;4915252;28;104051;-73
2023/12/20 09:08:25;;;;;;;;;47.67;39.00;;;;;-143.90;100.00;75695.31;4916167;28;102437;-72
2023/12/20 09:10:52;;;;;;;;;46.00;36.00;;;;;-143.90;100.00;75699.44;4914665;28;102139;-73
2023/12/20 09:13:18;;;;;;;;;34.00;27.67;;;;;-143.90;100.00;75693.25;4910553;28;102816;-74
2023/12/20 09:15:45;;;;;;;;;34.33;30.33;;;;;-143.90;100.00;75695.31;4911015;28;108854;-72
2023/12/20 09:18:11;;;;;;;;;33.67;25.67;;;;;-143.90;100.00;75682.91;4908762;28;102418;-73
2023/12/20 09:20:38;;;;;;;;;34.67;29.33;;;;;-143.90;100.00;75682.91;4912411;28;102618;-73
2023/12/20 09:23:09;;;;;;;;;30.67;26.00;;;;;-143.90;100.00;75674.63;4904586;28;102259;-72
2023/12/20 09:25:36;;;;;;;;;29.67;28.00;;;;;-143.90;100.00;75670.50;4914761;28;104072;-72
2023/12/20 09:28:05;;;;;;;;;32.33;31.33;;;;;-143.90;100.00;75680.84;4914095;28;102201;-72
2023/12/20 09:30:32;;;;;;;;;35.00;31.33;;;;;-143.90;100.00;75682.91;4915277;28;102244;-72
2023/12/20 09:32:58;;;;;;;;;35.00;31.00;;;;;-143.90;100.00;75676.69;4916597;28;102169;-73
2023/12/20 09:35:25;;;;;;;;;34.33;31.33;;;;;-143.90;100.00;75676.69;4915190;28;104081;-73
2023/12/20 09:37:53;;;;;;;;;36.00;33.00;;;;;-143.90;100.00;75680.84;4916318;28;102508;-73
2023/12/20 09:40:19;;;;;;;;;51.00;35.67;;;;;-143.90;100.00;75680.84;4915115;28;101943;-72
2023/12/20 09:42:55;;;;;;;;;31.00;30.00;;;;;-143.90;100.00;75664.28;4919195;28;102233;-72
2023/12/20 09:45:22;;;;;;;;;32.67;30.67;;;;;-143.90;100.00;75662.22;4914305;28;108776;-73
2023/12/20 09:47:52;;;;;;;;;33.33;30.67;;;;;-143.90;100.00;75668.44;4913839;28;102538;-72
2023/12/20 09:50:20;;;;;;;;;34.67;30.67;;;;;-143.90;100.00;75658.09;4913534;28;102247;-72
2023/12/20 09:52:52;;;;;;;;;31.33;27.00;;;;;-143.90;100.00;75647.75;4920264;28;105185;-73
2023/12/20 09:55:20;;;;;;;;;28.25;24.50;;;;;-143.90;100.00;75633.28;4913492;28;108764;-73
2023/12/20 09:57:47;;;;;;;;;21.33;16.67;;;;;-143.90;100.00;75627.06;4918184;28;103133;-73
2023/12/20 10:00:17;;;;;;;;;49.33;35.00;;;;;-143.90;100.00;75631.22;4916643;28;102084;-72
2023/12/20 10:02:59;;;;;;;;;41.33;37.33;;;;;-143.90;100.00;75622.94;4914834;28;102044;-73
2023/12/20 10:05:30;;;;;;;;;38.33;31.00;;;;;-143.90;100.00;75618.81;4913901;28;108654;-72
2023/12/20 10:07:58;;;;;;;;;46.67;41.67;;;;;-143.90;100.00;75631.22;4916013;28;102189;-73
2023/12/20 10:10:26;;;;;;;;;34.00;32.33;;;;;-143.90;100.00;75625.00;4915260;28;102308;-72
2023/12/20 10:13:10;;;;;;;;;36.67;32.00;;;;;-143.90;100.00;75616.72;4915396;28;101986;-72
2023/12/20 10:15:37;;;;;;;;;36.33;32.67;;;;;-143.90;100.00;75608.47;4916162;28;104025;-72
2023/12/20 10:18:05;;;;;;;;;39.33;33.00;;;;;-143.90;100.00;75614.66;4915425;28;102078;-73
2023/12/20 10:20:32;;;;;;;;;38.33;28.00;;;;;-143.90;100.00;75604.34;4915458;28;102167;-73
2023/12/20 10:23:00;;;;;;;;;37.00;33.00;;;;;-143.90;100.00;75618.81;4917065;28;103632;-72
2023/12/20 10:25:28;;;;;;;;;44.33;32.00;;;;;-143.90;100.00;75622.94;4916923;28;104001;-73
2023/12/20 10:28:22;;;;;;;;;35.67;31.67;;;;;-143.90;100.00;75610.53;4915698;28;103020;-73
2023/12/20 10:30:49;;;;;;;;;40.25;33.00;;;;;-143.90;100.00;75614.66;4913366;28;102076;-73
2023/12/20 10:33:28;;;;;;;;;44.00;38.00;;;;;-143.90;100.00;75618.81;4917516;28;102952;-73
2023/12/20 10:35:55;;;;;;;;;48.33;40.00;;;;;-143.90;100.00;75616.72;4912907;28;108641;-72
2023/12/20 10:38:23;;;;;;;;;41.67;36.33;;;;;-143.90;100.00;75610.53;4915621;28;102048;-73
2023/12/20 10:40:56;;;;;;;;;35.67;32.67;;;;;-143.90;100.00;75622.94;4916201;28;102017;-73
2023/12/20 10:43:26;;;;;;;;;40.67;34.00;;;;;-143.90;100.00;75618.81;4913133;28;103011;-73
2023/12/20 10:45:53;;;;;;;;;46.00;38.33;;;;;-143.90;100.00;75616.72;4914655;28;104144;-73
2023/12/20 10:48:22;;;;;;;;;42.00;35.00;;;;;-143.90;100.00;75618.81;4916169;28;102005;-73
2023/12/20 10:50:49;;;;;;;;;32.75;25.00;;;;;-143.90;100.00;75606.41;4915717;28;102277;-73
2023/12/20 10:53:16;;;;;;;;;38.33;37.00;;;;;-143.90;100.00;75618.81;4908584;28;102102;-73
2023/12/20 10:55:44;;;;;;;;;26.67;21.67;;;;;-143.90;100.00;75610.53;4913307;28;110124;-74
2023/12/20 10:58:12;;;;;;;;;41.33;31.67;;;;;-143.90;100.00;75610.53;4915632;28;102121;-72